Terminal Aerodrome Forecast
Issued by NWS Upton, NY

Home | Current Version | Previous Version | Text Only | Print | Product List | Glossary On
Versions: 1 2 3 4 5 6 7 8 9 10 11 12 13 14 15 16 17 18 19 20 21 22 23 24 25 26 27 28 29 30 31 32 33 34 35 36 37
000
FTUS41 KOKX 212320
TAFLGA
TAF
KLGA 212320Z 2200/2224 25004KT 5SM BR OVC007
     FM220200 VRB03KT 2SM BR OVC004
     FM220600 VRB02KT 3/4SM BR OVC003
      TEMPO 2209/2212 1/2SM FG OVC002
     FM221400 05006KT 1SM BR OVC006
     FM221600 05008KT 4SM BR SCT007 OVC012
     FM222200 06015G20KT 3SM -RA BR OVC009=

USA.gov is the U.S. government's official web portal to all federal, state and local government web resources and services.